Time;durP1;ratioP1;P1;durP2;ratioP2;P2;SDS_P1;SDS_P2;PMS_P1;PMS_P2;Temp;Humidity;BMP_temperature;BMP_pressure;BME280_temperature;BME280_humidity;BME280_pressure;Samples;Min_cycle;Max_cycle;Signal;HPM_P1;HPM_P2
2023/05/10 00:02:17;;;;;;;23.90;15.40;;;;;;;;;;5063732;28;20055;-70
2023/05/10 00:04:43;;;;;;;21.10;13.77;;;;;;;;;;5064945;28;20608;-71
2023/05/10 00:07:10;;;;;;;20.98;13.18;;;;;;;;;;5061922;28;20028;-71
2023/05/10 00:09:36;;;;;;;20.08;14.43;;;;;;;;;;5065972;28;20563;-70
2023/05/10 00:12:02;;;;;;;25.05;15.43;;;;;;;;;;5062851;28;20629;-70
2023/05/10 00:14:28;;;;;;;21.58;14.93;;;;;;;;;;5064937;28;20020;-69
2023/05/10 00:16:55;;;;;;;22.25;15.38;;;;;;;;;;5062541;28;20138;-70
2023/05/10 00:19:21;;;;;;;18.95;14.13;;;;;;;;;;5063047;28;20024;-70
2023/05/10 00:21:47;;;;;;;21.35;14.13;;;;;;;;;;5063378;28;20066;-71
2023/05/10 00:24:13;;;;;;;17.80;13.90;;;;;;;;;;5065288;28;20040;-71
2023/05/10 00:26:40;;;;;;;14.75;11.73;;;;;;;;;;5061490;28;20453;-70
2023/05/10 00:29:06;;;;;;;15.80;12.30;;;;;;;;;;5065231;28;20017;-71
2023/05/10 00:31:33;;;;;;;17.98;12.23;;;;;;;;;;5062121;28;20115;-70
2023/05/10 00:33:59;;;;;;;15.70;11.65;;;;;;;;;;5065423;28;20020;-70
2023/05/10 00:36:25;;;;;;;16.90;10.88;;;;;;;;;;5060453;28;20111;-70
2023/05/10 00:38:52;;;;;;;12.68;10.15;;;;;;;;;;5060745;28;20358;-70
2023/05/10 00:41:18;;;;;;;16.08;9.75;;;;;;;;;;5058973;28;20431;-70
2023/05/10 00:43:44;;;;;;;11.35;8.95;;;;;;;;;;5058882;28;20124;-71
2023/05/10 00:46:10;;;;;;;13.93;10.02;;;;;;;;;;5061916;28;20029;-70
2023/05/10 00:48:37;;;;;;;17.45;10.18;;;;;;;;;;5067057;28;20393;-70
2023/05/10 00:51:03;;;;;;;11.43;9.25;;;;;;;;;;5063138;28;20040;-70
2023/05/10 00:53:32;;;;;;;14.65;10.25;;;;;;;;;;5066205;28;20166;-70
2023/05/10 00:55:59;;;;;;;15.25;11.10;;;;;;;;;;5061997;28;20028;-70
2023/05/10 00:58:28;;;;;;;15.57;9.90;;;;;;;;;;5064699;28;20024;-70
2023/05/10 01:00:56;;;;;;;15.15;10.13;;;;;;;;;;5060013;28;20067;-71
2023/05/10 01:03:22;;;;;;;14.75;9.88;;;;;;;;;;5066644;28;20047;-71
2023/05/10 01:05:48;;;;;;;15.13;10.95;;;;;;;;;;5057354;28;20077;-71
2023/05/10 01:08:14;;;;;;;14.27;9.30;;;;;;;;;;5060904;28;20720;-70
2023/05/10 01:10:41;;;;;;;12.80;9.65;;;;;;;;;;5063762;28;20120;-70
2023/05/10 01:13:07;;;;;;;16.63;10.43;;;;;;;;;;5063327;28;20044;-70
2023/05/10 01:15:33;;;;;;;14.77;10.57;;;;;;;;;;5064967;28;20039;-70
2023/05/10 01:18:00;;;;;;;16.85;12.10;;;;;;;;;;5068142;28;20175;-69
2023/05/10 01:20:28;;;;;;;15.30;10.50;;;;;;;;;;5063752;28;20025;-70
2023/05/10 01:23:12;;;;;;;13.65;10.57;;;;;;;;;;5061222;28;20040;-71
2023/05/10 01:25:48;;;;;;;15.43;11.15;;;;;;;;;;5064252;28;20091;-69
2023/05/10 01:28:32;;;;;;;14.25;9.98;;;;;;;;;;5065318;28;20028;-71
2023/05/10 01:31:17;;;;;;;15.45;9.40;;;;;;;;;;5056025;28;20518;-71
2023/05/10 01:33:58;;;;;;;12.98;8.57;;;;;;;;;;5065667;28;20036;-71
2023/05/10 01:36:28;;;;;;;15.23;8.82;;;;;;;;;;5058935;28;20035;-70
2023/05/10 01:39:09;;;;;;;11.70;9.10;;;;;;;;;;5065778;28;20016;-71
2023/05/10 01:41:35;;;;;;;11.98;9.02;;;;;;;;;;5061871;28;20020;-70
2023/05/10 01:44:20;;;;;;;13.50;9.00;;;;;;;;;;5065111;28;20040;-70
2023/05/10 01:46:52;;;;;;;12.90;9.23;;;;;;;;;;5060389;28;20808;-71
2023/05/10 01:49:24;;;;;;;13.55;9.05;;;;;;;;;;5065504;28;20107;-70
2023/05/10 01:51:53;;;;;;;12.50;8.48;;;;;;;;;;5058696;28;20059;-70
2023/05/10 01:54:20;;;;;;;15.48;8.57;;;;;;;;;;5060780;28;20021;-70
2023/05/10 01:56:51;;;;;;;11.55;8.70;;;;;;;;;;5064293;28;20559;-69
2023/05/10 01:59:18;;;;;;;12.02;8.07;;;;;;;;;;5060900;28;20025;-70
2023/05/10 02:01:46;;;;;;;18.40;8.60;;;;;;;;;;5063517;28;20103;-69
2023/05/10 02:04:14;;;;;;;9.27;8.00;;;;;;;;;;5065752;28;20040;-70
2023/05/10 02:06:42;;;;;;;13.50;8.55;;;;;;;;;;5062395;28;20112;-71
2023/05/10 02:09:09;;;;;;;10.45;8.13;;;;;;;;;;5062220;28;20579;-71
2023/05/10 02:11:37;;;;;;;10.88;7.95;;;;;;;;;;5060801;28;20086;-70
2023/05/10 02:14:03;;;;;;;10.43;7.65;;;;;;;;;;5060451;28;20038;-69
2023/05/10 02:16:30;;;;;;;10.77;8.27;;;;;;;;;;5058980;28;20064;-69
2023/05/10 02:18:57;;;;;;;10.68;8.50;;;;;;;;;;5061399;28;20019;-69
2023/05/10 02:21:24;;;;;;;11.07;8.27;;;;;;;;;;5058544;28;20068;-70
2023/05/10 02:23:51;;;;;;;11.60;8.60;;;;;;;;;;5062448;28;20365;-70
2023/05/10 02:26:18;;;;;;;12.43;8.75;;;;;;;;;;5058616;28;20120;-69
2023/05/10 02:28:45;;;;;;;11.77;8.85;;;;;;;;;;5061373;28;20149;-72
2023/05/10 02:31:12;;;;;;;12.30;8.55;;;;;;;;;;5061985;28;20561;-71
2023/05/10 02:33:40;;;;;;;10.95;8.07;;;;;;;;;;5058393;28;20123;-71
2023/05/10 02:36:07;;;;;;;10.52;7.72;;;;;;;;;;5061253;28;20020;-70
2023/05/10 02:38:33;;;;;;;9.98;7.95;;;;;;;;;;5062480;28;20479;-70
2023/05/10 02:41:00;;;;;;;8.60;7.70;;;;;;;;;;5061867;28;20100;-70
2023/05/10 02:43:26;;;;;;;10.30;7.50;;;;;;;;;;5062951;28;20128;-71
2023/05/10 02:45:53;;;;;;;10.93;7.93;;;;;;;;;;5062411;28;20111;-70
2023/05/10 02:48:19;;;;;;;16.38;8.50;;;;;;;;;;5061741;28;20832;-70
2023/05/10 02:50:46;;;;;;;12.20;8.25;;;;;;;;;;5061876;28;20119;-70
2023/05/10 02:53:19;;;;;;;14.07;8.93;;;;;;;;;;5064016;28;20409;-70
2023/05/10 02:55:50;;;;;;;16.63;9.25;;;;;;;;;;5062623;28;20021;-70
2023/05/10 02:58:19;;;;;;;13.63;9.07;;;;;;;;;;5060121;28;20036;-70
2023/05/10 03:00:46;;;;;;;17.35;8.65;;;;;;;;;;5061726;28;20037;-70
2023/05/10 03:03:12;;;;;;;16.08;8.45;;;;;;;;;;5065495;28;20025;-70
2023/05/10 03:05:38;;;;;;;12.05;8.15;;;;;;;;;;5065016;28;20092;-70
2023/05/10 03:08:05;;;;;;;15.95;8.80;;;;;;;;;;5063917;28;20439;-70
2023/05/10 03:10:33;;;;;;;15.20;9.13;;;;;;;;;;5061910;28;20222;-70
2023/05/10 03:13:06;;;;;;;10.02;7.88;;;;;;;;;;5060450;28;20477;-69
2023/05/10 03:15:39;;;;;;;13.60;9.90;;;;;;;;;;5057511;28;20060;-70
2023/05/10 03:18:16;;;;;;;12.20;9.38;;;;;;;;;;5064698;28;20107;-70
2023/05/10 03:20:42;;;;;;;12.77;9.13;;;;;;;;;;5061381;28;20492;-70
2023/05/10 03:23:13;;;;;;;12.80;8.95;;;;;;;;;;5054928;28;20024;-69
2023/05/10 03:25:40;;;;;;;9.80;8.10;;;;;;;;;;5058254;28;20029;-71
2023/05/10 03:28:06;;;;;;;17.65;10.20;;;;;;;;;;5061123;28;20021;-69
2023/05/10 03:30:34;;;;;;;11.98;8.40;;;;;;;;;;5061082;28;20477;-70
2023/05/10 03:33:06;;;;;;;9.93;8.10;;;;;;;;;;5062484;28;20036;-70
2023/05/10 03:35:32;;;;;;;11.73;8.57;;;;;;;;;;5062855;28;20029;-69
2023/05/10 03:37:58;;;;;;;11.57;7.65;;;;;;;;;;5061114;28;20036;-69
2023/05/10 03:40:26;;;;;;;9.77;8.25;;;;;;;;;;5064123;28;20027;-70
2023/05/10 03:42:52;;;;;;;12.02;8.68;;;;;;;;;;5059102;28;20028;-70
2023/05/10 03:45:18;;;;;;;12.57;8.55;;;;;;;;;;5061331;28;20841;-70
2023/05/10 03:47:44;;;;;;;17.40;9.10;;;;;;;;;;5059463;28;20111;-70
2023/05/10 03:50:10;;;;;;;9.70;8.43;;;;;;;;;;5063320;28;20112;-69
2023/05/10 03:52:38;;;;;;;10.00;7.68;;;;;;;;;;5061318;28;20123;-70
2023/05/10 03:55:05;;;;;;;13.10;9.57;;;;;;;;;;5061998;28;20101;-70
2023/05/10 03:57:31;;;;;;;13.05;9.27;;;;;;;;;;5059436;28;20437;-69
2023/05/10 03:59:57;;;;;;;15.18;9.75;;;;;;;;;;5063920;28;20029;-70
2023/05/10 04:02:23;;;;;;;14.02;11.18;;;;;;;;;;5059336;28;20039;-70
2023/05/10 04:04:50;;;;;;;18.33;10.15;;;;;;;;;;5059692;28;20036;-69
2023/05/10 04:07:16;;;;;;;14.95;9.93;;;;;;;;;;5063357;28;20029;-70
2023/05/10 04:09:43;;;;;;;16.55;10.77;;;;;;;;;;5063473;28;20121;-71
2023/05/10 04:12:09;;;;;;;13.50;10.00;;;;;;;;;;5060190;28;20030;-72
2023/05/10 04:14:35;;;;;;;12.32;9.77;;;;;;;;;;5064176;28;20033;-70
2023/05/10 04:17:02;;;;;;;15.50;10.27;;;;;;;;;;5054332;28;20103;-70
2023/05/10 04:19:31;;;;;;;16.10;11.07;;;;;;;;;;5059539;28;20037;-69
2023/05/10 04:21:57;;;;;;;17.95;12.90;;;;;;;;;;5062622;28;20079;-69
2023/05/10 04:24:24;;;;;;;17.42;12.02;;;;;;;;;;5061972;28;20033;-70
2023/05/10 04:26:50;;;;;;;21.30;12.65;;;;;;;;;;5054666;28;20037;-70
2023/05/10 04:29:16;;;;;;;17.83;11.30;;;;;;;;;;5061243;28;20020;-70
2023/05/10 04:31:43;;;;;;;13.48;10.95;;;;;;;;;;5061234;28;20040;-69
2023/05/10 04:34:09;;;;;;;14.57;11.18;;;;;;;;;;5063156;28;20131;-69
2023/05/10 04:36:36;;;;;;;14.30;10.43;;;;;;;;;;5060339;28;20417;-69
2023/05/10 04:39:03;;;;;;;14.50;10.32;;;;;;;;;;5057687;28;20013;-70
2023/05/10 04:41:29;;;;;;;14.27;10.55;;;;;;;;;;5054864;28;20035;-69
2023/05/10 04:43:55;;;;;;;12.90;9.55;;;;;;;;;;5061712;28;20108;-70
2023/05/10 04:46:22;;;;;;;16.63;10.43;;;;;;;;;;5059120;28;20043;-70
2023/05/10 04:48:48;;;;;;;18.58;10.38;;;;;;;;;;5056546;28;20162;-70
2023/05/10 04:51:14;;;;;;;17.88;12.25;;;;;;;;;;5059634;28;20032;-71
2023/05/10 04:53:40;;;;;;;19.63;11.70;;;;;;;;;;5053631;28;20070;-70
2023/05/10 04:56:07;;;;;;;18.10;12.32;;;;;;;;;;5059213;28;20115;-69
2023/05/10 04:58:33;;;;;;;23.30;15.35;;;;;;;;;;5058670;28;20465;-69
2023/05/10 05:01:06;;;;;;;22.90;14.15;;;;;;;;;;5056813;28;20435;-70
2023/05/10 05:03:33;;;;;;;21.98;14.93;;;;;;;;;;5055916;28;20934;-70
2023/05/10 05:05:59;;;;;;;21.95;15.05;;;;;;;;;;5062387;28;20136;-71
2023/05/10 05:08:25;;;;;;;19.13;13.93;;;;;;;;;;5059982;28;20115;-69
2023/05/10 05:10:52;;;;;;;24.73;14.27;;;;;;;;;;5060635;28;20060;-70
2023/05/10 05:13:18;;;;;;;17.98;13.50;;;;;;;;;;5056350;28;20032;-71
2023/05/10 05:15:44;;;;;;;20.00;14.05;;;;;;;;;;5057878;28;20404;-71
2023/05/10 05:18:10;;;;;;;22.63;13.73;;;;;;;;;;5062278;28;20070;-69
2023/05/10 05:20:37;;;;;;;17.30;12.73;;;;;;;;;;5060824;28;20075;-70
2023/05/10 05:23:03;;;;;;;17.23;12.18;;;;;;;;;;5059701;28;20023;-69
2023/05/10 05:25:29;;;;;;;14.35;11.07;;;;;;;;;;5052768;28;20123;-72
2023/05/10 05:27:55;;;;;;;15.68;10.88;;;;;;;;;;5060217;28;20027;-69
2023/05/10 05:30:22;;;;;;;14.75;10.45;;;;;;;;;;5061409;28;20036;-70
2023/05/10 05:32:48;;;;;;;11.95;9.73;;;;;;;;;;5051560;28;20398;-69
2023/05/10 05:35:14;;;;;;;15.38;9.82;;;;;;;;;;5052124;28;20020;-70
2023/05/10 05:37:40;;;;;;;15.68;9.82;;;;;;;;;;5061635;28;20094;-69
2023/05/10 05:40:07;;;;;;;18.00;10.48;;;;;;;;;;5062156;28;20472;-69
2023/05/10 05:42:33;;;;;;;12.07;9.02;;;;;;;;;;5054638;28;20029;-70
2023/05/10 05:44:59;;;;;;;15.15;8.90;;;;;;;;;;5062043;28;20496;-69
2023/05/10 05:47:25;;;;;;;18.85;8.85;;;;;;;;;;5057831;28;20417;-69
2023/05/10 05:49:52;;;;;;;17.20;8.18;;;;;;;;;;5062105;28;20053;-70
2023/05/10 05:52:18;;;;;;;15.00;9.20;;;;;;;;;;5050314;28;20534;-71
2023/05/10 05:54:44;;;;;;;14.13;9.25;;;;;;;;;;5056728;28;20087;-70
2023/05/10 05:57:10;;;;;;;12.02;8.18;;;;;;;;;;5055872;28;20153;-71
2023/05/10 05:59:41;;;;;;;12.43;8.27;;;;;;;;;;5061114;28;20104;-70
2023/05/10 06:02:07;;;;;;;14.03;9.23;;;;;;;;;;5057011;28;20040;-70
2023/05/10 06:04:34;;;;;;;15.40;8.55;;;;;;;;;;5062337;28;20325;-69
2023/05/10 06:07:00;;;;;;;12.30;8.18;;;;;;;;;;5059430;28;20175;-70
2023/05/10 06:09:26;;;;;;;8.82;7.53;;;;;;;;;;5060099;28;20881;-70
2023/05/10 06:11:52;;;;;;;9.00;7.70;;;;;;;;;;5056864;28;20123;-70
2023/05/10 06:14:21;;;;;;;13.23;8.35;;;;;;;;;;5056995;28;20139;-70
2023/05/10 06:16:47;;;;;;;16.33;12.02;;;;;;;;;;5057531;28;20020;-71
2023/05/10 06:19:13;;;;;;;28.40;18.73;;;;;;;;;;5059393;28;20123;-70
2023/05/10 06:21:39;;;;;;;33.67;23.92;;;;;;;;;;5055252;28;20029;-70
2023/05/10 06:24:06;;;;;;;39.25;27.17;;;;;;;;;;5058348;28;20029;-69
2023/05/10 06:26:33;;;;;;;43.13;28.95;;;;;;;;;;5050070;28;20033;-70
2023/05/10 06:28:59;;;;;;;31.30;23.35;;;;;;;;;;5060474;28;20476;-69
2023/05/10 06:31:25;;;;;;;29.27;19.25;;;;;;;;;;5057460;28;20065;-70
2023/05/10 06:33:51;;;;;;;39.60;25.50;;;;;;;;;;5055310;28;20021;-74
2023/05/10 06:36:17;;;;;;;47.60;31.05;;;;;;;;;;5058414;28;20056;-70
2023/05/10 06:38:44;;;;;;;47.03;30.73;;;;;;;;;;5060552;28;20078;-71
2023/05/10 06:41:10;;;;;;;45.08;26.70;;;;;;;;;;5060925;28;20111;-73
2023/05/10 06:43:39;;;;;;;34.97;21.35;;;;;;;;;;5060901;28;20111;-72
2023/05/10 06:46:07;;;;;;;32.75;21.23;;;;;;;;;;5057519;28;20528;-71
2023/05/10 06:48:33;;;;;;;25.23;16.88;;;;;;;;;;5054813;28;20113;-73
2023/05/10 06:51:00;;;;;;;17.52;13.00;;;;;;;;;;5059621;28;20115;-73
2023/05/10 06:53:26;;;;;;;18.05;11.18;;;;;;;;;;5050837;28;20025;-73
2023/05/10 06:55:52;;;;;;;16.48;10.77;;;;;;;;;;5060002;28;20036;-73
2023/05/10 06:58:18;;;;;;;20.42;13.52;;;;;;;;;;5053591;28;20031;-72
2023/05/10 07:00:46;;;;;;;19.05;14.82;;;;;;;;;;5060696;28;20030;-73
2023/05/10 07:03:12;;;;;;;13.63;10.27;;;;;;;;;;5059745;28;20400;-73
2023/05/10 07:05:38;;;;;;;16.38;10.80;;;;;;;;;;5060250;28;20115;-74
2023/05/10 07:08:05;;;;;;;15.73;10.07;;;;;;;;;;5057258;28;20456;-70
2023/05/10 07:10:31;;;;;;;15.93;10.95;;;;;;;;;;5057554;28;20029;-72
2023/05/10 07:12:57;;;;;;;15.18;10.63;;;;;;;;;;5059356;28;20484;-69
2023/05/10 07:15:23;;;;;;;12.75;10.05;;;;;;;;;;5059589;28;20028;-70
2023/05/10 07:17:51;;;;;;;13.48;10.32;;;;;;;;;;5061174;28;20037;-74
2023/05/10 07:20:17;;;;;;;15.18;9.90;;;;;;;;;;5059266;28;20075;-73
2023/05/10 07:22:44;;;;;;;22.77;12.95;;;;;;;;;;5059409;28;20062;-72
2023/05/10 07:25:10;;;;;;;18.02;12.98;;;;;;;;;;5061425;28;20040;-72
2023/05/10 07:27:36;;;;;;;15.65;11.88;;;;;;;;;;5059638;28;20025;-72
2023/05/10 07:30:03;;;;;;;19.35;12.30;;;;;;;;;;5057677;28;20919;-71
2023/05/10 07:32:29;;;;;;;18.17;11.65;;;;;;;;;;5055805;28;20034;-74
2023/05/10 07:34:55;;;;;;;17.88;11.93;;;;;;;;;;5060181;28;20213;-73
2023/05/10 07:37:21;;;;;;;17.60;12.00;;;;;;;;;;5060000;28;20507;-73
2023/05/10 07:39:48;;;;;;;19.70;11.93;;;;;;;;;;5058623;28;20043;-71
2023/05/10 07:42:14;;;;;;;23.92;13.43;;;;;;;;;;5061076;28;20032;-73
2023/05/10 07:44:40;;;;;;;23.35;13.98;;;;;;;;;;5061345;28;20550;-73
2023/05/10 07:47:06;;;;;;;25.90;15.30;;;;;;;;;;5060757;28;20095;-72
2023/05/10 07:49:32;;;;;;;20.50;15.05;;;;;;;;;;5060759;28;20070;-71
2023/05/10 07:51:59;;;;;;;21.50;13.50;;;;;;;;;;5056580;28;20048;-72
2023/05/10 07:54:25;;;;;;;24.10;14.35;;;;;;;;;;5061945;28;20036;-72
2023/05/10 07:56:52;;;;;;;20.15;13.05;;;;;;;;;;5057744;28;20028;-72
2023/05/10 07:59:18;;;;;;;22.25;13.30;;;;;;;;;;5061890;28;20056;-73
2023/05/10 08:01:44;;;;;;;20.35;13.82;;;;;;;;;;5055826;28;20013;-72
2023/05/10 08:04:11;;;;;;;18.88;12.27;;;;;;;;;;5058066;28;20045;-72
2023/05/10 08:06:37;;;;;;;19.70;13.10;;;;;;;;;;5056386;28;20034;-73
2023/05/10 08:09:03;;;;;;;22.10;12.60;;;;;;;;;;5061244;28;20066;-73
2023/05/10 08:11:30;;;;;;;17.42;12.75;;;;;;;;;;5056086;28;20028;-73
2023/05/10 08:13:56;;;;;;;35.13;14.65;;;;;;;;;;5062316;28;20033;-73
2023/05/10 08:16:22;;;;;;;28.67;14.77;;;;;;;;;;5054637;28;20112;-72
2023/05/10 08:18:50;;;;;;;25.10;14.80;;;;;;;;;;5062745;28;20013;-73
2023/05/10 08:21:17;;;;;;;24.67;15.02;;;;;;;;;;5056428;28;20389;-72
2023/05/10 08:23:46;;;;;;;19.52;13.52;;;;;;;;;;5064896;28;20036;-72
2023/05/10 08:26:12;;;;;;;21.98;14.60;;;;;;;;;;5060889;28;20033;-72
2023/05/10 08:28:38;;;;;;;21.23;13.90;;;;;;;;;;5064665;28;20043;-71
2023/05/10 08:31:05;;;;;;;19.75;13.77;;;;;;;;;;5063048;28;20469;-70
2023/05/10 08:33:31;;;;;;;21.20;13.40;;;;;;;;;;5062386;28;20024;-73
2023/05/10 08:35:57;;;;;;;21.15;15.05;;;;;;;;;;5058426;28;20105;-73
2023/05/10 08:38:24;;;;;;;23.20;15.05;;;;;;;;;;5061016;28;20107;-73
2023/05/10 08:40:56;;;;;;;22.35;14.90;;;;;;;;;;5062783;28;20111;-73
2023/05/10 08:43:23;;;;;;;22.90;15.90;;;;;;;;;;5064290;28;20028;-72
2023/05/10 08:45:50;;;;;;;21.25;14.43;;;;;;;;;;5061488;28;20075;-73
2023/05/10 08:48:17;;;;;;;26.40;15.45;;;;;;;;;;5054572;28;20257;-72
2023/05/10 08:50:43;;;;;;;22.60;15.55;;;;;;;;;;5052586;28;20042;-72
2023/05/10 08:53:13;;;;;;;28.88;18.40;;;;;;;;;;5064734;28;20563;-73
2023/05/10 08:55:41;;;;;;;25.30;19.05;;;;;;;;;;5060467;28;20471;-72
2023/05/10 08:58:08;;;;;;;30.88;17.08;;;;;;;;;;5060180;28;20040;-72
2023/05/10 09:00:35;;;;;;;16.98;13.70;;;;;;;;;;5059513;28;20123;-72
2023/05/10 09:03:02;;;;;;;25.25;14.57;;;;;;;;;;5057978;28;20100;-72
2023/05/10 09:05:28;;;;;;;22.40;15.88;;;;;;;;;;5063176;28;20376;-72
2023/05/10 09:07:54;;;;;;;26.20;16.00;;;;;;;;;;5062823;28;20024;-72
2023/05/10 09:10:21;;;;;;;20.15;14.63;;;;;;;;;;5064342;28;20751;-72
2023/05/10 09:12:48;;;;;;;22.35;15.02;;;;;;;;;;5062406;28;20020;-72
2023/05/10 09:15:19;;;;;;;24.90;15.85;;;;;;;;;;5063125;28;20033;-72
2023/05/10 09:17:45;;;;;;;25.40;15.95;;;;;;;;;;5063177;28;20024;-72
2023/05/10 09:20:11;;;;;;;22.40;15.18;;;;;;;;;;5063999;28;20103;-71
2023/05/10 09:22:38;;;;;;;21.65;15.07;;;;;;;;;;5062316;28;20494;-72
2023/05/10 09:25:14;;;;;;;23.83;15.55;;;;;;;;;;5062878;28;20020;-72
2023/05/10 09:27:41;;;;;;;22.80;14.80;;;;;;;;;;5061748;28;20016;-71
2023/05/10 09:30:08;;;;;;;21.73;15.40;;;;;;;;;;5063529;28;20111;-70
2023/05/10 09:32:41;;;;;;;23.20;16.92;;;;;;;;;;5063260;28;20028;-73
2023/05/10 09:35:14;;;;;;;29.70;17.58;;;;;;;;;;5061150;28;20028;-72
2023/05/10 09:37:44;;;;;;;24.65;16.27;;;;;;;;;;5063510;28;20055;-73
2023/05/10 09:40:15;;;;;;;23.67;17.52;;;;;;;;;;5064045;28;20530;-72
2023/05/10 09:42:42;;;;;;;27.90;18.73;;;;;;;;;;5063864;28;20024;-72
2023/05/10 09:45:09;;;;;;;24.35;17.50;;;;;;;;;;5056759;28;20124;-74
2023/05/10 09:47:36;;;;;;;29.73;18.42;;;;;;;;;;5056817;28;20060;-74
2023/05/10 09:50:03;;;;;;;30.98;17.83;;;;;;;;;;5059049;28;20024;-73
2023/05/10 09:52:30;;;;;;;28.98;18.70;;;;;;;;;;5063021;28;20407;-73
2023/05/10 09:54:57;;;;;;;27.00;19.30;;;;;;;;;;5063732;28;20089;-73
2023/05/10 09:57:24;;;;;;;34.95;19.77;;;;;;;;;;5061959;28;20069;-73
2023/05/10 09:59:50;;;;;;;34.55;21.35;;;;;;;;;;5061687;28;20021;-70
2023/05/10 10:02:17;;;;;;;29.00;20.77;;;;;;;;;;5057356;28;20036;-70
2023/05/10 10:04:43;;;;;;;27.85;21.30;;;;;;;;;;5058996;28;20084;-71
2023/05/10 10:07:10;;;;;;;31.38;20.52;;;;;;;;;;5057407;28;20435;-74
2023/05/10 10:09:36;;;;;;;32.30;21.95;;;;;;;;;;5062992;28;20051;-73
2023/05/10 10:12:03;;;;;;;31.80;22.02;;;;;;;;;;5063312;28;20111;-75
2023/05/10 10:14:30;;;;;;;34.92;22.67;;;;;;;;;;5059193;28;20082;-74
2023/05/10 10:16:56;;;;;;;36.00;23.55;;;;;;;;;;5062399;28;20071;-74
2023/05/10 10:19:22;;;;;;;35.15;22.55;;;;;;;;;;5060912;28;20028;-73
2023/05/10 10:21:50;;;;;;;33.35;24.17;;;;;;;;;;5063554;28;20020;-74
2023/05/10 10:24:17;;;;;;;34.20;23.77;;;;;;;;;;5061399;28;20036;-73
2023/05/10 10:26:43;;;;;;;35.75;23.35;;;;;;;;;;5063426;28;20132;-70
2023/05/10 10:29:28;;;;;;;32.20;23.05;;;;;;;;;;5063049;28;20081;-73
2023/05/10 10:32:20;;;;;;;31.88;23.00;;;;;;;;;;5056961;28;20043;-70
2023/05/10 10:34:47;;;;;;;36.88;25.38;;;;;;;;;;5054600;28;20063;-68
2023/05/10 10:37:13;;;;;;;37.55;24.40;;;;;;;;;;5057101;28;20135;-74
2023/05/10 10:39:39;;;;;;;37.22;23.70;;;;;;;;;;5058155;28;20089;-71
2023/05/10 10:42:05;;;;;;;33.08;22.83;;;;;;;;;;5060316;28;20103;-70
2023/05/10 10:44:35;;;;;;;33.00;25.10;;;;;;;;;;5060284;28;20028;-74
2023/05/10 10:47:05;;;;;;;36.53;25.77;;;;;;;;;;5060720;28;20025;-70
2023/05/10 10:49:33;;;;;;;35.20;26.33;;;;;;;;;;5062296;28;20544;-73
2023/05/10 10:52:17;;;;;;;40.03;27.20;;;;;;;;;;5059780;28;20141;-73
2023/05/10 10:54:52;;;;;;;39.28;27.27;;;;;;;;;;5056006;28;20166;-74
2023/05/10 10:57:21;;;;;;;37.95;27.23;;;;;;;;;;5060607;28;20074;-74
2023/05/10 10:59:47;;;;;;;30.90;22.67;;;;;;;;;;5061671;28;20024;-75
2023/05/10 11:02:36;;;;;;;36.13;21.98;;;;;;;;;;5058537;28;20035;-69
2023/05/10 11:05:21;;;;;;;30.73;21.30;;;;;;;;;;5058841;28;20448;-69
2023/05/10 11:07:58;;;;;;;22.83;18.33;;;;;;;;;;5061416;28;20504;-75
2023/05/10 11:10:25;;;;;;;25.98;17.40;;;;;;;;;;5059116;28;20038;-70
2023/05/10 11:13:00;;;;;;;23.55;16.52;;;;;;;;;;5062336;28;20043;-75
2023/05/10 11:15:53;;;;;;;22.27;15.23;;;;;;;;;;5057680;28;20074;-74
2023/05/10 11:18:20;;;;;;;20.42;14.93;;;;;;;;;;5056061;28;20633;-70
2023/05/10 11:20:59;;;;;;;23.27;15.05;;;;;;;;;;5062629;28;20320;-72
2023/05/10 11:23:30;;;;;;;16.52;13.65;;;;;;;;;;5053717;28;20036;-73
2023/05/10 11:25:56;;;;;;;20.67;13.93;;;;;;;;;;5062144;28;20048;-74
2023/05/10 11:28:22;;;;;;;18.67;12.82;;;;;;;;;;5062402;28;20488;-74
2023/05/10 11:30:49;;;;;;;16.02;12.55;;;;;;;;;;5061917;28;20024;-69
2023/05/10 11:33:16;;;;;;;16.83;11.23;;;;;;;;;;5061730;28;20075;-74
2023/05/10 11:35:42;;;;;;;19.08;11.02;;;;;;;;;;5056716;28;20024;-73
2023/05/10 11:38:09;;;;;;;18.30;11.00;;;;;;;;;;5062560;28;20036;-75
2023/05/10 11:40:36;;;;;;;15.00;9.63;;;;;;;;;;5059205;28;20596;-73
2023/05/10 11:43:03;;;;;;;14.32;9.95;;;;;;;;;;5057204;28;20111;-73
2023/05/10 11:45:31;;;;;;;10.55;8.52;;;;;;;;;;5060399;28;20033;-75
2023/05/10 11:47:58;;;;;;;10.25;7.90;;;;;;;;;;5062347;28;20622;-74
2023/05/10 11:50:24;;;;;;;10.27;7.28;;;;;;;;;;5057675;28;20120;-72
2023/05/10 11:52:54;;;;;;;10.52;7.95;;;;;;;;;;5059913;28;20602;-73
2023/05/10 11:55:20;;;;;;;11.23;7.80;;;;;;;;;;5061127;28;20038;-74
2023/05/10 11:57:47;;;;;;;9.68;7.50;;;;;;;;;;5063472;28;20116;-70
2023/05/10 12:00:16;;;;;;;13.20;10.32;;;;;;;;;;5059367;28;20031;-74
2023/05/10 12:02:42;;;;;;;16.05;11.85;;;;;;;;;;5061520;28;20638;-70
2023/05/10 12:05:09;;;;;;;20.25;12.93;;;;;;;;;;5042711;28;20505;-71
2023/05/10 12:07:35;;;;;;;16.50;12.95;;;;;;;;;;5039718;28;20079;-71
2023/05/10 12:10:09;;;;;;;20.58;13.38;;;;;;;;;;5043141;28;20021;-72
2023/05/10 12:12:36;;;;;;;17.45;12.95;;;;;;;;;;5037794;28;20076;-74
2023/05/10 12:15:03;;;;;;;18.85;13.70;;;;;;;;;;5043015;28;20070;-71
2023/05/10 12:17:30;;;;;;;20.77;12.85;;;;;;;;;;5043334;28;20033;-70
2023/05/10 12:20:00;;;;;;;16.70;12.25;;;;;;;;;;5039300;28;20191;-70
2023/05/10 12:22:26;;;;;;;16.15;12.43;;;;;;;;;;5042242;28;20050;-70
2023/05/10 12:24:52;;;;;;;16.33;11.88;;;;;;;;;;5043183;28;20048;-70
2023/05/10 12:27:18;;;;;;;14.60;11.07;;;;;;;;;;5036431;28;20028;-71
2023/05/10 12:29:45;;;;;;;14.43;10.90;;;;;;;;;;5042232;28;20561;-69
2023/05/10 12:32:11;;;;;;;14.30;10.32;;;;;;;;;;5042567;28;20033;-72
2023/05/10 12:34:38;;;;;;;15.35;9.95;;;;;;;;;;5041073;28;20119;-69
2023/05/10 12:37:04;;;;;;;14.63;10.73;;;;;;;;;;5042089;28;20035;-70
2023/05/10 12:39:43;;;;;;;16.10;10.32;;;;;;;;;;5034570;28;20112;-70
2023/05/10 12:42:10;;;;;;;42.78;11.43;;;;;;;;;;5040146;28;20108;-70
2023/05/10 12:44:36;;;;;;;19.63;9.98;;;;;;;;;;5040135;28;20487;-70
2023/05/10 12:47:02;;;;;;;12.45;8.40;;;;;;;;;;5038523;28;20542;-70
2023/05/10 12:49:29;;;;;;;13.60;10.43;;;;;;;;;;5041131;28;20071;-73
2023/05/10 12:51:55;;;;;;;17.48;10.00;;;;;;;;;;5037044;28;20116;-69
2023/05/10 12:54:21;;;;;;;12.70;9.20;;;;;;;;;;5038481;28;20116;-72
2023/05/10 12:56:47;;;;;;;11.18;8.32;;;;;;;;;;5039448;28;20029;-69
2023/05/10 12:59:14;;;;;;;17.05;9.38;;;;;;;;;;5040805;28;20112;-70
2023/05/10 13:01:40;;;;;;;15.90;8.07;;;;;;;;;;5040054;28;20067;-70
2023/05/10 13:04:06;;;;;;;12.48;8.23;;;;;;;;;;5052353;28;20044;-72
2023/05/10 13:06:32;;;;;;;9.15;6.97;;;;;;;;;;5060144;28;20039;-70
2023/05/10 13:08:59;;;;;;;11.60;8.60;;;;;;;;;;5058499;28;20024;-69
2023/05/10 13:11:25;;;;;;;10.63;8.00;;;;;;;;;;5057466;28;20044;-74
2023/05/10 13:13:51;;;;;;;15.68;9.13;;;;;;;;;;5061178;28;20021;-69
2023/05/10 13:16:18;;;;;;;17.08;11.43;;;;;;;;;;5061685;28;20665;-69
2023/05/10 13:18:44;;;;;;;15.65;9.95;;;;;;;;;;5061567;28;20028;-69
2023/05/10 13:21:11;;;;;;;15.57;11.65;;;;;;;;;;5054804;28;20730;-70
2023/05/10 13:23:37;;;;;;;19.30;14.20;;;;;;;;;;5057085;28;20434;-70
2023/05/10 13:26:03;;;;;;;16.52;11.57;;;;;;;;;;5058404;28;20128;-74
2023/05/10 13:28:30;;;;;;;14.55;11.57;;;;;;;;;;5060927;28;20056;-74
2023/05/10 13:30:56;;;;;;;16.08;12.10;;;;;;;;;;5060276;28;20074;-68
2023/05/10 13:33:22;;;;;;;16.13;11.23;;;;;;;;;;5060202;28;20036;-69
2023/05/10 13:35:48;;;;;;;14.52;10.60;;;;;;;;;;5059332;28;20095;-70
2023/05/10 13:38:15;;;;;;;13.50;10.48;;;;;;;;;;5057996;28;20029;-69
2023/05/10 13:40:41;;;;;;;17.00;11.65;;;;;;;;;;5060680;28;20134;-69
2023/05/10 13:43:07;;;;;;;23.52;12.07;;;;;;;;;;5061231;28;20103;-69
2023/05/10 13:45:33;;;;;;;20.13;12.50;;;;;;;;;;5058536;28;20025;-70
2023/05/10 13:48:00;;;;;;;13.70;11.10;;;;;;;;;;5060800;28;20187;-69
2023/05/10 13:50:26;;;;;;;13.40;10.23;;;;;;;;;;5060540;28;20678;-71
2023/05/10 13:52:53;;;;;;;11.05;9.13;;;;;;;;;;5059721;28;20042;-72
2023/05/10 13:55:19;;;;;;;11.00;9.23;;;;;;;;;;5058041;28;20052;-70
2023/05/10 13:57:45;;;;;;;14.75;9.95;;;;;;;;;;5059940;28;20089;-70
2023/05/10 14:00:12;;;;;;;11.88;7.90;;;;;;;;;;5060338;28;20036;-71
2023/05/10 14:02:38;;;;;;;10.95;6.22;;;;;;;;;;5060157;28;20032;-69
2023/05/10 14:05:05;;;;;;;10.20;6.25;;;;;;;;;;5058000;28;20139;-74
2023/05/10 14:07:31;;;;;;;8.98;5.38;;;;;;;;;;5057634;28;20037;-70
2023/05/10 14:09:59;;;;;;;5.90;4.88;;;;;;;;;;5058174;28;20564;-70
2023/05/10 14:12:25;;;;;;;6.13;5.30;;;;;;;;;;5056224;28;20451;-70
2023/05/10 14:14:52;;;;;;;5.85;4.32;;;;;;;;;;5057921;28;20036;-70
2023/05/10 14:17:19;;;;;;;5.18;4.03;;;;;;;;;;5060583;28;20036;-74
2023/05/10 14:19:45;;;;;;;5.97;4.00;;;;;;;;;;5054812;28;20043;-70
2023/05/10 14:22:11;;;;;;;5.10;4.30;;;;;;;;;;5059492;28;20107;-69
2023/05/10 14:24:38;;;;;;;5.28;4.05;;;;;;;;;;5060257;28;20029;-72